sensor_id;sensor_type;location;lat;lon;timestamp;pressure;altitude;pressure_sealevel;temperature;humidity
56928;BME280;60850;52.502;13.426;2024-01-07T00:01:28;101403.78;;;-1.40;100.00
56928;BME280;60850;52.502;13.426;2024-01-07T00:03:56;101400.69;;;-1.53;100.00
56928;BME280;60850;52.502;13.426;2024-01-07T00:06:23;101402.25;;;-1.58;100.00
56928;BME280;60850;52.502;13.426;2024-01-07T00:08:49;101396.94;;;-1.61;100.00
56928;BME280;60850;52.502;13.426;2024-01-07T00:11:18;101396.06;;;-1.62;100.00
56928;BME280;60850;52.502;13.426;2024-01-07T00:13:45;101403.41;;;-1.50;100.00
56928;BME280;60850;52.502;13.426;2024-01-07T00:16:12;101402.81;;;-1.69;100.00
56928;BME280;60850;52.502;13.426;2024-01-07T00:18:39;101401.09;;;-1.68;100.00
56928;BME280;60850;52.502;13.426;2024-01-07T00:21:06;101404.47;;;-1.71;100.00
56928;BME280;60850;52.502;13.426;2024-01-07T00:23:32;101406.41;;;-1.65;100.00
56928;BME280;60850;52.502;13.426;2024-01-07T00:25:59;101413.97;;;-1.47;100.00
56928;BME280;60850;52.502;13.426;2024-01-07T00:28:28;101414.81;;;-1.74;100.00
56928;BME280;60850;52.502;13.426;2024-01-07T00:30:55;101428.75;;;-1.75;100.00
56928;BME280;60850;52.502;13.426;2024-01-07T00:33:22;101427.56;;;-1.57;100.00
56928;BME280;60850;52.502;13.426;2024-01-07T00:35:49;101427.94;;;-1.72;100.00
56928;BME280;60850;52.502;13.426;2024-01-07T00:38:16;101429.09;;;-1.64;100.00
56928;BME280;60850;52.502;13.426;2024-01-07T00:40:43;101437.59;;;-1.70;100.00
56928;BME280;60850;52.502;13.426;2024-01-07T00:43:10;101447.72;;;-1.80;100.00
56928;BME280;60850;52.502;13.426;2024-01-07T00:45:38;101440.34;;;-1.90;100.00
56928;BME280;60850;52.502;13.426;2024-01-07T00:48:06;101450.28;;;-1.82;100.00
56928;BME280;60850;52.502;13.426;2024-01-07T00:50:33;101456.75;;;-1.96;100.00
56928;BME280;60850;52.502;13.426;2024-01-07T00:53:00;101453.88;;;-1.78;100.00
56928;BME280;60850;52.502;13.426;2024-01-07T00:55:27;101460.59;;;-1.85;100.00
56928;BME280;60850;52.502;13.426;2024-01-07T00:57:54;101467.59;;;-1.84;100.00
56928;BME280;60850;52.502;13.426;2024-01-07T01:00:22;101461.97;;;-1.96;100.00
56928;BME280;60850;52.502;13.426;2024-01-07T01:02:50;101470.97;;;-1.88;100.00
56928;BME280;60850;52.502;13.426;2024-01-07T01:05:17;101479.84;;;-1.83;100.00
56928;BME280;60850;52.502;13.426;2024-01-07T01:07:44;101478.53;;;-1.96;100.00
56928;BME280;60850;52.502;13.426;2024-01-07T01:10:11;101481.56;;;-1.83;100.00
56928;BME280;60850;52.502;13.426;2024-01-07T01:12:38;101485.03;;;-2.08;100.00
56928;BME280;60850;52.502;13.426;2024-01-07T01:15:06;101481.56;;;-2.07;100.00
56928;BME280;60850;52.502;13.426;2024-01-07T01:17:33;101480.16;;;-1.98;100.00
56928;BME280;60850;52.502;13.426;2024-01-07T01:20:01;101480.72;;;-2.06;100.00
56928;BME280;60850;52.502;13.426;2024-01-07T01:22:29;101491.31;;;-2.03;100.00
56928;BME280;60850;52.502;13.426;2024-01-07T01:24:56;101476.06;;;-2.15;100.00
56928;BME280;60850;52.502;13.426;2024-01-07T01:27:23;101504.53;;;-2.23;100.00
56928;BME280;60850;52.502;13.426;2024-01-07T01:29:51;101506.13;;;-2.26;100.00
56928;BME280;60850;52.502;13.426;2024-01-07T01:32:18;101505.97;;;-2.31;100.00
56928;BME280;60850;52.502;13.426;2024-01-07T01:34:45;101516.50;;;-2.28;100.00
56928;BME280;60850;52.502;13.426;2024-01-07T01:37:13;101488.53;;;-2.32;100.00
56928;BME280;60850;52.502;13.426;2024-01-07T01:39:40;101516.03;;;-2.40;100.00
56928;BME280;60850;52.502;13.426;2024-01-07T01:42:07;101516.72;;;-2.45;100.00
56928;BME280;60850;52.502;13.426;2024-01-07T01:44:34;101520.91;;;-2.49;100.00
56928;BME280;60850;52.502;13.426;2024-01-07T01:47:01;101505.59;;;-2.40;100.00
56928;BME280;60850;52.502;13.426;2024-01-07T01:49:28;101516.50;;;-2.28;100.00
56928;BME280;60850;52.502;13.426;2024-01-07T01:51:56;101515.34;;;-2.36;100.00
56928;BME280;60850;52.502;13.426;2024-01-07T01:54:24;101511.03;;;-2.34;100.00
56928;BME280;60850;52.502;13.426;2024-01-07T01:56:52;101535.16;;;-2.41;100.00
56928;BME280;60850;52.502;13.426;2024-01-07T01:59:19;101535.63;;;-2.51;100.00
56928;BME280;60850;52.502;13.426;2024-01-07T02:01:47;101522.34;;;-2.57;100.00
56928;BME280;60850;52.502;13.426;2024-01-07T02:04:15;101529.09;;;-2.62;100.00
56928;BME280;60850;52.502;13.426;2024-01-07T02:06:44;101530.38;;;-2.53;100.00
56928;BME280;60850;52.502;13.426;2024-01-07T02:09:12;101535.44;;;-2.56;100.00
56928;BME280;60850;52.502;13.426;2024-01-07T02:11:40;101526.63;;;-2.59;100.00
56928;BME280;60850;52.502;13.426;2024-01-07T02:14:07;101536.09;;;-2.61;100.00
56928;BME280;60850;52.502;13.426;2024-01-07T02:16:34;101521.16;;;-2.65;100.00
56928;BME280;60850;52.502;13.426;2024-01-07T02:19:01;101534.94;;;-2.68;100.00
56928;BME280;60850;52.502;13.426;2024-01-07T02:21:27;101539.19;;;-2.71;100.00
56928;BME280;60850;52.502;13.426;2024-01-07T02:23:55;101538.41;;;-2.69;100.00
56928;BME280;60850;52.502;13.426;2024-01-07T02:26:24;101540.25;;;-2.66;100.00
56928;BME280;60850;52.502;13.426;2024-01-07T02:28:50;101545.81;;;-2.80;100.00
56928;BME280;60850;52.502;13.426;2024-01-07T02:31:17;101545.31;;;-2.92;100.00
56928;BME280;60850;52.502;13.426;2024-01-07T02:33:44;101548.84;;;-2.90;100.00
56928;BME280;60850;52.502;13.426;2024-01-07T02:36:11;101546.03;;;-2.96;100.00
56928;BME280;60850;52.502;13.426;2024-01-07T02:38:38;101551.16;;;-2.97;100.00
56928;BME280;60850;52.502;13.426;2024-01-07T02:41:05;101550.84;;;-3.05;100.00
56928;BME280;60850;52.502;13.426;2024-01-07T02:43:33;101572.16;;;-3.15;100.00
56928;BME280;60850;52.502;13.426;2024-01-07T02:46:00;101554.59;;;-3.19;100.00
56928;BME280;60850;52.502;13.426;2024-01-07T02:48:27;101556.38;;;-3.18;100.00
56928;BME280;60850;52.502;13.426;2024-01-07T02:50:54;101561.31;;;-3.24;100.00
56928;BME280;60850;52.502;13.426;2024-01-07T02:53:20;101552.56;;;-3.26;100.00
56928;BME280;60850;52.502;13.426;2024-01-07T02:55:47;101574.34;;;-3.24;100.00
56928;BME280;60850;52.502;13.426;2024-01-07T02:58:14;101566.16;;;-3.34;100.00
56928;BME280;60850;52.502;13.426;2024-01-07T03:00:42;101563.38;;;-3.38;100.00
56928;BME280;60850;52.502;13.426;2024-01-07T03:03:09;101576.06;;;-3.25;100.00
56928;BME280;60850;52.502;13.426;2024-01-07T03:05:36;101584.97;;;-3.41;100.00
56928;BME280;60850;52.502;13.426;2024-01-07T03:08:04;101580.69;;;-3.39;100.00
56928;BME280;60850;52.502;13.426;2024-01-07T03:10:31;101588.78;;;-3.33;100.00
56928;BME280;60850;52.502;13.426;2024-01-07T03:12:57;101585.59;;;-3.46;100.00
56928;BME280;60850;52.502;13.426;2024-01-07T03:15:24;101579.47;;;-3.47;100.00
56928;BME280;60850;52.502;13.426;2024-01-07T03:17:52;101581.97;;;-3.50;100.00
56928;BME280;60850;52.502;13.426;2024-01-07T03:20:19;101597.38;;;-3.54;100.00
56928;BME280;60850;52.502;13.426;2024-01-07T03:22:46;101593.13;;;-3.52;100.00
56928;BME280;60850;52.502;13.426;2024-01-07T03:25:13;101599.81;;;-3.59;100.00
56928;BME280;60850;52.502;13.426;2024-01-07T03:27:40;101592.69;;;-3.63;100.00
56928;BME280;60850;52.502;13.426;2024-01-07T03:30:07;101598.84;;;-3.61;100.00
56928;BME280;60850;52.502;13.426;2024-01-07T03:32:35;101589.19;;;-3.64;100.00
56928;BME280;60850;52.502;13.426;2024-01-07T03:35:04;101602.16;;;-3.65;100.00
56928;BME280;60850;52.502;13.426;2024-01-07T03:37:31;101598.16;;;-3.57;100.00
56928;BME280;60850;52.502;13.426;2024-01-07T03:39:58;101609.25;;;-3.61;100.00
56928;BME280;60850;52.502;13.426;2024-01-07T03:42:24;101601.59;;;-3.58;100.00
56928;BME280;60850;52.502;13.426;2024-01-07T03:44:51;101596.78;;;-3.68;100.00
56928;BME280;60850;52.502;13.426;2024-01-07T03:47:18;101615.72;;;-3.72;100.00
56928;BME280;60850;52.502;13.426;2024-01-07T03:49:45;101615.69;;;-3.53;100.00
56928;BME280;60850;52.502;13.426;2024-01-07T03:52:13;101632.91;;;-3.76;100.00
56928;BME280;60850;52.502;13.426;2024-01-07T03:54:40;101622.91;;;-3.67;100.00
56928;BME280;60850;52.502;13.426;2024-01-07T03:57:07;101631.53;;;-3.68;100.00
56928;BME280;60850;52.502;13.426;2024-01-07T03:59:34;101625.31;;;-3.71;100.00
56928;BME280;60850;52.502;13.426;2024-01-07T04:02:01;101643.84;;;-3.65;100.00
56928;BME280;60850;52.502;13.426;2024-01-07T04:04:28;101641.22;;;-3.65;100.00
56928;BME280;60850;52.502;13.426;2024-01-07T04:06:55;101641.06;;;-3.68;100.00
56928;BME280;60850;52.502;13.426;2024-01-07T04:09:24;101641.56;;;-3.77;100.00
56928;BME280;60850;52.502;13.426;2024-01-07T04:11:50;101635.59;;;-3.74;100.00
56928;BME280;60850;52.502;13.426;2024-01-07T04:14:17;101651.22;;;-3.74;100.00
56928;BME280;60850;52.502;13.426;2024-01-07T04:16:44;101646.00;;;-3.74;100.00
56928;BME280;60850;52.502;13.426;2024-01-07T04:19:11;101649.59;;;-3.72;100.00
56928;BME280;60850;52.502;13.426;2024-01-07T04:21:38;101661.03;;;-3.69;100.00
56928;BME280;60850;52.502;13.426;2024-01-07T04:24:05;101670.00;;;-3.81;100.00
56928;BME280;60850;52.502;13.426;2024-01-07T04:26:33;101654.34;;;-3.81;100.00
56928;BME280;60850;52.502;13.426;2024-01-07T04:29:00;101674.13;;;-3.87;100.00
56928;BME280;60850;52.502;13.426;2024-01-07T04:31:27;101667.53;;;-3.78;100.00
56928;BME280;60850;52.502;13.426;2024-01-07T04:33:54;101669.88;;;-3.84;100.00
56928;BME280;60850;52.502;13.426;2024-01-07T04:36:21;101668.28;;;-3.81;100.00
56928;BME280;60850;52.502;13.426;2024-01-07T04:38:48;101669.19;;;-3.80;100.00
56928;BME280;60850;52.502;13.426;2024-01-07T04:41:15;101668.38;;;-3.79;100.00
56928;BME280;60850;52.502;13.426;2024-01-07T04:43:43;101669.09;;;-3.82;100.00
56928;BME280;60850;52.502;13.426;2024-01-07T04:46:10;101666.72;;;-3.77;100.00
56928;BME280;60850;52.502;13.426;2024-01-07T04:48:38;101663.81;;;-3.83;100.00
56928;BME280;60850;52.502;13.426;2024-01-07T04:51:05;101673.91;;;-3.91;100.00
56928;BME280;60850;52.502;13.426;2024-01-07T04:53:32;101680.66;;;-3.95;100.00
56928;BME280;60850;52.502;13.426;2024-01-07T04:55:58;101661.75;;;-3.91;100.00
56928;BME280;60850;52.502;13.426;2024-01-07T04:58:25;101674.31;;;-3.82;100.00
56928;BME280;60850;52.502;13.426;2024-01-07T05:00:54;101671.09;;;-3.76;100.00
56928;BME280;60850;52.502;13.426;2024-01-07T05:03:21;101670.75;;;-3.84;100.00
56928;BME280;60850;52.502;13.426;2024-01-07T05:05:47;101667.13;;;-3.68;100.00
56928;BME280;60850;52.502;13.426;2024-01-07T05:08:14;101674.41;;;-3.80;100.00
56928;BME280;60850;52.502;13.426;2024-01-07T05:10:41;101682.22;;;-3.80;100.00
56928;BME280;60850;52.502;13.426;2024-01-07T05:13:08;101684.41;;;-3.70;100.00
56928;BME280;60850;52.502;13.426;2024-01-07T05:15:36;101688.31;;;-3.80;100.00
56928;BME280;60850;52.502;13.426;2024-01-07T05:18:07;101687.44;;;-3.80;100.00
56928;BME280;60850;52.502;13.426;2024-01-07T05:20:33;101696.03;;;-3.81;100.00
56928;BME280;60850;52.502;13.426;2024-01-07T05:23:01;101687.34;;;-3.82;100.00
56928;BME280;60850;52.502;13.426;2024-01-07T05:25:27;101690.81;;;-3.81;100.00
56928;BME280;60850;52.502;13.426;2024-01-07T05:27:54;101698.81;;;-3.78;100.00
56928;BME280;60850;52.502;13.426;2024-01-07T05:30:21;101701.16;;;-3.65;100.00
56928;BME280;60850;52.502;13.426;2024-01-07T05:32:48;101698.84;;;-3.59;100.00
56928;BME280;60850;52.502;13.426;2024-01-07T05:35:17;101711.88;;;-3.59;100.00
56928;BME280;60850;52.502;13.426;2024-01-07T05:37:44;101714.03;;;-3.68;100.00
56928;BME280;60850;52.502;13.426;2024-01-07T05:40:11;101710.78;;;-3.82;100.00
56928;BME280;60850;52.502;13.426;2024-01-07T05:42:38;101722.72;;;-3.87;100.00
56928;BME280;60850;52.502;13.426;2024-01-07T05:45:05;101726.34;;;-3.66;100.00
56928;BME280;60850;52.502;13.426;2024-01-07T05:47:33;101727.78;;;-3.34;100.00
56928;BME280;60850;52.502;13.426;2024-01-07T05:49:59;101727.41;;;-3.61;100.00
56928;BME280;60850;52.502;13.426;2024-01-07T05:52:29;101722.50;;;-3.54;100.00
56928;BME280;60850;52.502;13.426;2024-01-07T05:54:55;101726.91;;;-3.34;100.00
56928;BME280;60850;52.502;13.426;2024-01-07T05:57:23;101732.25;;;-3.50;100.00
56928;BME280;60850;52.502;13.426;2024-01-07T05:59:50;101734.63;;;-3.55;100.00
56928;BME280;60850;52.502;13.426;2024-01-07T06:02:17;101730.47;;;-3.51;100.00
56928;BME280;60850;52.502;13.426;2024-01-07T06:04:44;101735.97;;;-3.26;100.00
56928;BME280;60850;52.502;13.426;2024-01-07T06:07:11;101740.78;;;-3.35;100.00
56928;BME280;60850;52.502;13.426;2024-01-07T06:09:39;101744.94;;;-3.39;100.00
56928;BME280;60850;52.502;13.426;2024-01-07T06:12:06;101733.97;;;-3.32;100.00
56928;BME280;60850;52.502;13.426;2024-01-07T06:14:33;101740.63;;;-3.19;100.00
56928;BME280;60850;52.502;13.426;2024-01-07T06:17:00;101744.28;;;-3.15;100.00
56928;BME280;60850;52.502;13.426;2024-01-07T06:19:27;101747.06;;;-3.11;100.00
56928;BME280;60850;52.502;13.426;2024-01-07T06:21:54;101756.22;;;-3.01;100.00
56928;BME280;60850;52.502;13.426;2024-01-07T06:24:22;101751.00;;;-3.01;100.00
56928;BME280;60850;52.502;13.426;2024-01-07T06:26:50;101749.00;;;-3.07;100.00
56928;BME280;60850;52.502;13.426;2024-01-07T06:29:17;101758.34;;;-3.12;100.00
56928;BME280;60850;52.502;13.426;2024-01-07T06:31:45;101763.44;;;-2.95;100.00
56928;BME280;60850;52.502;13.426;2024-01-07T06:34:12;101765.44;;;-3.09;100.00
56928;BME280;60850;52.502;13.426;2024-01-07T06:36:39;101760.66;;;-3.18;100.00
56928;BME280;60850;52.502;13.426;2024-01-07T06:39:07;101772.94;;;-2.77;100.00
56928;BME280;60850;52.502;13.426;2024-01-07T06:41:33;101776.72;;;-2.89;100.00
56928;BME280;60850;52.502;13.426;2024-01-07T06:44:02;101777.16;;;-2.99;100.00
56928;BME280;60850;52.502;13.426;2024-01-07T06:46:29;101779.56;;;-2.85;100.00
56928;BME280;60850;52.502;13.426;2024-01-07T06:48:56;101788.88;;;-2.90;100.00
56928;BME280;60850;52.502;13.426;2024-01-07T06:51:23;101782.72;;;-2.72;100.00
56928;BME280;60850;52.502;13.426;2024-01-07T06:53:49;101781.06;;;-2.90;100.00
56928;BME280;60850;52.502;13.426;2024-01-07T06:56:17;101787.88;;;-2.93;100.00
56928;BME280;60850;52.502;13.426;2024-01-07T06:58:43;101793.41;;;-3.05;100.00
56928;BME280;60850;52.502;13.426;2024-01-07T07:01:12;101788.75;;;-3.12;100.00
56928;BME280;60850;52.502;13.426;2024-01-07T07:03:40;101796.84;;;-3.06;100.00
56928;BME280;60850;52.502;13.426;2024-01-07T07:06:07;101795.09;;;-3.25;100.00
56928;BME280;60850;52.502;13.426;2024-01-07T07:08:34;101790.41;;;-3.14;100.00
56928;BME280;60850;52.502;13.426;2024-01-07T07:11:01;101790.25;;;-3.17;100.00
56928;BME280;60850;52.502;13.426;2024-01-07T07:13:28;101800.91;;;-3.13;100.00
56928;BME280;60850;52.502;13.426;2024-01-07T07:15:55;101803.84;;;-3.05;100.00
56928;BME280;60850;52.502;13.426;2024-01-07T07:18:23;101804.34;;;-3.14;100.00
56928;BME280;60850;52.502;13.426;2024-01-07T07:20:50;101816.81;;;-3.07;100.00
56928;BME280;60850;52.502;13.426;2024-01-07T07:23:17;101806.34;;;-3.08;100.00
56928;BME280;60850;52.502;13.426;2024-01-07T07:25:44;101812.66;;;-3.03;100.00
56928;BME280;60850;52.502;13.426;2024-01-07T07:28:11;101812.13;;;-2.96;100.00
56928;BME280;60850;52.502;13.426;2024-01-07T07:30:38;101814.91;;;-2.91;100.00
56928;BME280;60850;52.502;13.426;2024-01-07T07:33:05;101813.53;;;-2.83;100.00
56928;BME280;60850;52.502;13.426;2024-01-07T07:35:34;101824.06;;;-3.01;100.00
56928;BME280;60850;52.502;13.426;2024-01-07T07:38:00;101826.84;;;-2.96;100.00
56928;BME280;60850;52.502;13.426;2024-01-07T07:40:27;101824.69;;;-2.87;100.00
56928;BME280;60850;52.502;13.426;2024-01-07T07:42:54;101829.69;;;-2.92;100.00
56928;BME280;60850;52.502;13.426;2024-01-07T07:45:21;101838.28;;;-2.94;100.00
56928;BME280;60850;52.502;13.426;2024-01-07T07:47:48;101834.06;;;-2.91;100.00
56928;BME280;60850;52.502;13.426;2024-01-07T07:50:15;101836.63;;;-2.92;100.00
56928;BME280;60850;52.502;13.426;2024-01-07T07:52:43;101840.41;;;-2.86;100.00
56928;BME280;60850;52.502;13.426;2024-01-07T07:55:10;101844.19;;;-2.79;100.00
56928;BME280;60850;52.502;13.426;2024-01-07T07:57:37;101845.00;;;-2.80;100.00
56928;BME280;60850;52.502;13.426;2024-01-07T08:00:07;101845.53;;;-2.68;100.00
56928;BME280;60850;52.502;13.426;2024-01-07T08:02:38;101844.72;;;-2.67;100.00
56928;BME280;60850;52.502;13.426;2024-01-07T08:05:07;101845.13;;;-2.58;100.00
56928;BME280;60850;52.502;13.426;2024-01-07T08:07:34;101850.28;;;-2.59;100.00
56928;BME280;60850;52.502;13.426;2024-01-07T08:10:03;101846.03;;;-2.57;100.00
56928;BME280;60850;52.502;13.426;2024-01-07T08:12:31;101847.31;;;-2.47;100.00
56928;BME280;60850;52.502;13.426;2024-01-07T08:14:58;101846.16;;;-2.54;100.00
56928;BME280;60850;52.502;13.426;2024-01-07T08:17:24;101853.09;;;-2.55;100.00
56928;BME280;60850;52.502;13.426;2024-01-07T08:19:51;101857.50;;;-2.54;100.00
56928;BME280;60850;52.502;13.426;2024-01-07T08:22:18;101854.63;;;-2.60;100.00
56928;BME280;60850;52.502;13.426;2024-01-07T08:24:45;101858.19;;;-2.38;100.00
56928;BME280;60850;52.502;13.426;2024-01-07T08:27:14;101860.84;;;-2.37;100.00
56928;BME280;60850;52.502;13.426;2024-01-07T08:29:42;101872.41;;;-2.32;100.00
56928;BME280;60850;52.502;13.426;2024-01-07T08:32:09;101866.13;;;-2.35;100.00
56928;BME280;60850;52.502;13.426;2024-01-07T08:34:38;101866.41;;;-2.29;100.00
56928;BME280;60850;52.502;13.426;2024-01-07T08:37:05;101874.91;;;-2.33;100.00
56928;BME280;60850;52.502;13.426;2024-01-07T08:39:32;101867.34;;;-2.27;100.00
56928;BME280;60850;52.502;13.426;2024-01-07T08:41:59;101852.78;;;-2.22;100.00
56928;BME280;60850;52.502;13.426;2024-01-07T08:44:27;101861.28;;;-2.07;100.00
56928;BME280;60850;52.502;13.426;2024-01-07T08:46:54;101859.56;;;-2.06;100.00
56928;BME280;60850;52.502;13.426;2024-01-07T08:49:21;101859.03;;;-2.18;100.00
56928;BME280;60850;52.502;13.426;2024-01-07T08:51:48;101865.97;;;-2.19;100.00
56928;BME280;60850;52.502;13.426;2024-01-07T08:54:15;101872.50;;;-2.09;100.00
56928;BME280;60850;52.502;13.426;2024-01-07T08:56:41;101878.25;;;-1.97;100.00
56928;BME280;60850;52.502;13.426;2024-01-07T08:59:09;101875.88;;;-1.91;100.00
56928;BME280;60850;52.502;13.426;2024-01-07T09:01:38;101867.66;;;-1.79;100.00
56928;BME280;60850;52.502;13.426;2024-01-07T09:04:05;101870.22;;;-1.81;100.00
56928;BME280;60850;52.502;13.426;2024-01-07T09:06:32;101866.97;;;-1.75;100.00
56928;BME280;60850;52.502;13.426;2024-01-07T09:08:59;101880.22;;;-1.71;100.00
56928;BME280;60850;52.502;13.426;2024-01-07T09:11:25;101872.47;;;-1.69;100.00
56928;BME280;60850;52.502;13.426;2024-01-07T09:13:52;101864.41;;;-1.74;100.00
56928;BME280;60850;52.502;13.426;2024-01-07T09:16:19;101876.19;;;-1.62;100.00
56928;BME280;60850;52.502;13.426;2024-01-07T09:18:48;101880.41;;;-1.66;100.00
56928;BME280;60850;52.502;13.426;2024-01-07T09:21:16;101869.28;;;-1.62;100.00
56928;BME280;60850;52.502;13.426;2024-01-07T09:23:44;101881.41;;;-1.62;100.00
56928;BME280;60850;52.502;13.426;2024-01-07T09:26:10;101887.16;;;-1.50;100.00
56928;BME280;60850;52.502;13.426;2024-01-07T09:28:37;101878.69;;;-1.45;100.00
56928;BME280;60850;52.502;13.426;2024-01-07T09:31:04;101896.88;;;-1.48;100.00
56928;BME280;60850;52.502;13.426;2024-01-07T09:33:31;101886.31;;;-1.49;100.00
56928;BME280;60850;52.502;13.426;2024-01-07T09:36:00;101886.31;;;-1.49;100.00
56928;BME280;60850;52.502;13.426;2024-01-07T09:38:27;101883.09;;;-1.64;100.00
56928;BME280;60850;52.502;13.426;2024-01-07T09:40:54;101881.88;;;-1.52;100.00
56928;BME280;60850;52.502;13.426;2024-01-07T09:43:21;101878.13;;;-1.58;100.00
56928;BME280;60850;52.502;13.426;2024-01-07T09:45:50;101882.72;;;-1.53;100.00
56928;BME280;60850;52.502;13.426;2024-01-07T09:48:21;101871.81;;;-1.41;100.00
56928;BME280;60850;52.502;13.426;2024-01-07T09:50:48;101880.41;;;-1.45;100.00
56928;BME280;60850;52.502;13.426;2024-01-07T09:53:20;101878.72;;;-1.43;100.00
56928;BME280;60850;52.502;13.426;2024-01-07T09:55:52;101873.50;;;-1.43;100.00
56928;BME280;60850;52.502;13.426;2024-01-07T09:58:23;101880.97;;;-1.31;100.00
56928;BME280;60850;52.502;13.426;2024-01-07T10:00:50;101886.94;;;-1.34;100.00
56928;BME280;60850;52.502;13.426;2024-01-07T10:03:17;101890.88;;;-1.45;100.00
56928;BME280;60850;52.502;13.426;2024-01-07T10:05:43;101894.16;;;-1.49;100.00
56928;BME280;60850;52.502;13.426;2024-01-07T10:08:11;101891.25;;;-1.57;100.00
56928;BME280;60850;52.502;13.426;2024-01-07T10:10:41;101891.44;;;-1.52;100.00
56928;BME280;60850;52.502;13.426;2024-01-07T10:13:09;101895.53;;;-1.59;100.00
56928;BME280;60850;52.502;13.426;2024-01-07T10:15:36;101898.41;;;-1.53;100.00
56928;BME280;60850;52.502;13.426;2024-01-07T10:18:04;101889.13;;;-1.45;100.00
56928;BME280;60850;52.502;13.426;2024-01-07T10:20:31;101881.94;;;-1.50;100.00
56928;BME280;60850;52.502;13.426;2024-01-07T10:22:59;101876.13;;;-1.43;100.00
56928;BME280;60850;52.502;13.426;2024-01-07T10:25:26;101879.31;;;-1.50;100.00
56928;BME280;60850;52.502;13.426;2024-01-07T10:27:59;101879.25;;;-1.52;100.00
56928;BME280;60850;52.502;13.426;2024-01-07T10:30:28;101883.53;;;-1.54;100.00
56928;BME280;60850;52.502;13.426;2024-01-07T10:32:57;101875.69;;;-1.54;100.00
56928;BME280;60850;52.502;13.426;2024-01-07T10:35:27;101890.88;;;-1.45;100.00
56928;BME280;60850;52.502;13.426;2024-01-07T10:37:55;101888.00;;;-1.51;100.00
56928;BME280;60850;52.502;13.426;2024-01-07T10:40:23;101888.94;;;-1.49;100.00
56928;BME280;60850;52.502;13.426;2024-01-07T10:42:51;101890.97;;;-1.42;100.00
56928;BME280;60850;52.502;13.426;2024-01-07T10:45:20;101889.56;;;-1.34;100.00
56928;BME280;60850;52.502;13.426;2024-01-07T10:47:54;101884.41;;;-1.32;100.00
56928;BME280;60850;52.502;13.426;2024-01-07T10:50:22;101881.00;;;-1.30;100.00
56928;BME280;60850;52.502;13.426;2024-01-07T10:52:50;101881.50;;;-1.18;100.00
56928;BME280;60850;52.502;13.426;2024-01-07T10:55:18;101879.59;;;-1.22;100.00
56928;BME280;60850;52.502;13.426;2024-01-07T10:57:47;101869.31;;;-1.17;100.00
56928;BME280;60850;52.502;13.426;2024-01-07T11:00:16;101862.59;;;-1.11;100.00
56928;BME280;60850;52.502;13.426;2024-01-07T11:02:55;101864.47;;;-1.06;100.00
56928;BME280;60850;52.502;13.426;2024-01-07T11:05:31;101877.75;;;-1.02;100.00
56928;BME280;60850;52.502;13.426;2024-01-07T11:08:05;101871.91;;;-0.95;100.00
56928;BME280;60850;52.502;13.426;2024-01-07T11:10:38;101865.56;;;-1.01;100.00
56928;BME280;60850;52.502;13.426;2024-01-07T11:13:10;101864.72;;;-1.00;100.00
56928;BME280;60850;52.502;13.426;2024-01-07T11:15:52;101866.22;;;-1.07;100.00
56928;BME280;60850;52.502;13.426;2024-01-07T11:18:22;101871.63;;;-1.02;100.00
56928;BME280;60850;52.502;13.426;2024-01-07T11:20:49;101869.06;;;-1.01;100.00
56928;BME280;60850;52.502;13.426;2024-01-07T11:23:31;101878.78;;;-0.98;100.00
56928;BME280;60850;52.502;13.426;2024-01-07T11:26:00;101868.06;;;-1.04;100.00
56928;BME280;60850;52.502;13.426;2024-01-07T11:28:44;101865.06;;;-1.14;100.00
56928;BME280;60850;52.502;13.426;2024-01-07T11:31:11;101867.03;;;-1.08;100.00
56928;BME280;60850;52.502;13.426;2024-01-07T11:33:43;101872.19;;;-1.11;100.00
56928;BME280;60850;52.502;13.426;2024-01-07T11:36:11;101866.22;;;-1.07;100.00
56928;BME280;60850;52.502;13.426;2024-01-07T11:38:43;101859.03;;;-1.13;100.00
56928;BME280;60850;52.502;13.426;2024-01-07T11:41:12;101859.50;;;-1.00;100.00
56928;BME280;60850;52.502;13.426;2024-01-07T11:43:54;101856.13;;;-0.98;100.00
56928;BME280;60850;52.502;13.426;2024-01-07T11:46:23;101853.94;;;-0.86;100.00
56928;BME280;60850;52.502;13.426;2024-01-07T11:48:55;101850.81;;;-0.77;100.00
56928;BME280;60850;52.502;13.426;2024-01-07T11:51:24;101851.78;;;-0.97;100.00
56928;BME280;60850;52.502;13.426;2024-01-07T11:53:51;101841.03;;;-0.81;100.00
56928;BME280;60850;52.502;13.426;2024-01-07T11:56:18;101839.34;;;-0.79;100.00
56928;BME280;60850;52.502;13.426;2024-01-07T11:58:46;101839.34;;;-0.79;100.00
56928;BME280;60850;52.502;13.426;2024-01-07T12:01:14;101841.69;;;-0.87;100.00
56928;BME280;60850;52.502;13.426;2024-01-07T12:03:43;101845.59;;;-0.75;100.00
56928;BME280;60850;52.502;13.426;2024-01-07T12:06:12;101836.03;;;-0.75;100.00
56928;BME280;60850;52.502;13.426;2024-01-07T12:08:40;101837.47;;;-0.83;100.00
56928;BME280;60850;52.502;13.426;2024-01-07T12:11:07;101838.41;;;-0.81;100.00
56928;BME280;60850;52.502;13.426;2024-01-07T12:13:35;101841.69;;;-0.87;100.00
56928;BME280;60850;52.502;13.426;2024-01-07T12:16:03;101850.22;;;-1.15;100.00
56928;BME280;60850;52.502;13.426;2024-01-07T12:18:31;101840.00;;;-1.08;100.00
56928;BME280;60850;52.502;13.426;2024-01-07T12:20:58;101843.91;;;-0.97;100.00
56928;BME280;60850;52.502;13.426;2024-01-07T12:23:27;101847.47;;;-0.95;100.00
56928;BME280;60850;52.502;13.426;2024-01-07T12:25:54;101849.00;;;-1.00;100.00
56928;BME280;60850;52.502;13.426;2024-01-07T12:28:22;101852.47;;;-1.01;100.00
56928;BME280;60850;52.502;13.426;2024-01-07T12:30:49;101855.44;;;-0.92;100.00
56928;BME280;60850;52.502;13.426;2024-01-07T12:33:17;101848.19;;;-0.77;100.00